BAW712T EGLL-GMMX
Flight info
| Callsign | BAW712T |
|---|---|
| Flight time | 3h 14m |
| Altitude | 37000 |
| Route | GASGU2J GASGU N866 SAM M195 LORKU/N0447F390 DCT POZOF DCT BALDA DCT BATAX DCT PINOX DCT TOFEF DCT ALAGU DCT AMSEL UR722 MABAP MABAP4A |
| Aircraft | A20N/M-SDGHIJ1LRWXY/SB1 |
Departure
| Time | 2026-05-08 10:46 |
|---|---|
| Airport | London Heathrow Airport (EGLL) |
Arrival
| Time | 2026-05-08 14:00 |
|---|---|
| Airport | Marrakesh Menara Airport (GMMX) |
| Time | Latitude | Longitude | Altitude | Speed | Heading |
|---|---|---|---|---|---|
| 2026-05-08 10:16 | 51.47315 | -0.48606 | 87 ft | 0 kts | 270° |
| 2026-05-08 10:35 | 51.47315 | -0.48584 | 90 ft | 5 kts | 270° |
| 2026-05-08 10:35 | 51.47317 | -0.48515 | 86 ft | 6 kts | 249° |
| 2026-05-08 10:35 | 51.47346 | -0.48468 | 88 ft | 5 kts | 196° |
| 2026-05-08 10:36 | 51.47349 | -0.48467 | 89 ft | 0 kts | 196° |
| 2026-05-08 10:36 | 51.47348 | -0.48467 | 89 ft | 1 kts | 196° |
| 2026-05-08 10:36 | 51.47315 | -0.48476 | 88 ft | 14 kts | 180° |
| 2026-05-08 10:36 | 51.47203 | -0.48477 | 86 ft | 18 kts | 179° |
| 2026-05-08 10:37 | 51.47069 | -0.48473 | 86 ft | 20 kts | 180° |
| 2026-05-08 10:37 | 51.46924 | -0.48471 | 88 ft | 21 kts | 182° |
| 2026-05-08 10:37 | 51.46783 | -0.48472 | 88 ft | 17 kts | 179° |
| 2026-05-08 10:37 | 51.46674 | -0.48471 | 87 ft | 0 kts | 179° |
| 2026-05-08 10:38 | 51.46660 | -0.48470 | 87 ft | 0 kts | 179° |
| 2026-05-08 10:38 | 51.46658 | -0.48470 | 87 ft | 2 kts | 179° |
| 2026-05-08 10:38 | 51.46656 | -0.48470 | 87 ft | 0 kts | 179° |
| 2026-05-08 10:39 | 51.46646 | -0.48470 | 87 ft | 6 kts | 179° |
| 2026-05-08 10:39 | 51.46636 | -0.48470 | 87 ft | 2 kts | 179° |
| 2026-05-08 10:39 | 51.46637 | -0.48470 | 87 ft | 0 kts | 179° |
| 2026-05-08 10:42 | 51.46629 | -0.48469 | 87 ft | 7 kts | 179° |
| 2026-05-08 10:42 | 51.46592 | -0.48468 | 87 ft | 0 kts | 179° |
| 2026-05-08 10:44 | 51.46591 | -0.48468 | 87 ft | 0 kts | 179° |
| 2026-05-08 10:44 | 51.46584 | -0.48468 | 87 ft | 3 kts | 180° |
| 2026-05-08 10:45 | 51.46502 | -0.48467 | 90 ft | 19 kts | 162° |
| 2026-05-08 10:45 | 51.46473 | -0.48362 | 90 ft | 8 kts | 88° |
| 2026-05-08 10:45 | 51.46472 | -0.48197 | 91 ft | 37 kts | 84° |
| 2026-05-08 10:45 | 51.46481 | -0.47403 | 86 ft | 102 kts | 87° |
| 2026-05-08 10:46 | 51.46484 | -0.46003 | 91 ft | 149 kts | 89° |
| 2026-05-08 10:46 | 51.46506 | -0.44297 | 642 ft | 148 kts | 90° |
| 2026-05-08 10:46 | 51.46525 | -0.42690 | 1408 ft | 142 kts | 91° |
| 2026-05-08 10:46 | 51.46413 | -0.41122 | 1919 ft | 147 kts | 112° |
| 2026-05-08 10:47 | 51.45927 | -0.39659 | 2286 ft | 163 kts | 126° |
| 2026-05-08 10:47 | 51.45215 | -0.38132 | 2686 ft | 179 kts | 129° |
| 2026-05-08 10:47 | 51.44423 | -0.36501 | 3063 ft | 199 kts | 129° |
| 2026-05-08 10:47 | 51.43518 | -0.34643 | 3499 ft | 219 kts | 136° |
| 2026-05-08 10:48 | 51.42143 | -0.33410 | 4063 ft | 235 kts | 167° |
| 2026-05-08 10:48 | 51.40693 | -0.33158 | 4897 ft | 238 kts | 183° |
| 2026-05-08 10:48 | 51.39008 | -0.33707 | 5483 ft | 257 kts | 202° |
| 2026-05-08 10:48 | 51.37415 | -0.35095 | 6385 ft | 263 kts | 215° |
| 2026-05-08 10:49 | 51.35956 | -0.36889 | 7327 ft | 267 kts | 220° |
| 2026-05-08 10:49 | 51.34550 | -0.38869 | 8259 ft | 272 kts | 222° |
| 2026-05-08 10:49 | 51.33138 | -0.40934 | 9201 ft | 277 kts | 223° |
| 2026-05-08 10:49 | 51.31765 | -0.42944 | 10055 ft | 284 kts | 223° |
| 2026-05-08 10:50 | 51.30502 | -0.45446 | 10662 ft | 300 kts | 239° |
| 2026-05-08 10:50 | 51.29695 | -0.48668 | 11041 ft | 324 kts | 253° |
| 2026-05-08 10:50 | 51.29053 | -0.52221 | 11585 ft | 337 kts | 253° |
| 2026-05-08 10:50 | 51.28397 | -0.55820 | 12461 ft | 340 kts | 253° |
| 2026-05-08 10:51 | 51.27715 | -0.59483 | 13338 ft | 345 kts | 253° |
| 2026-05-08 10:51 | 51.27019 | -0.63162 | 14169 ft | 349 kts | 252° |
| 2026-05-08 10:51 | 51.26315 | -0.66845 | 14936 ft | 352 kts | 252° |
| 2026-05-08 10:51 | 51.25620 | -0.70461 | 15664 ft | 356 kts | 252° |
| 2026-05-08 10:52 | 51.24890 | -0.74251 | 16427 ft | 359 kts | 252° |
| 2026-05-08 10:52 | 51.24155 | -0.78066 | 17176 ft | 363 kts | 252° |
| 2026-05-08 10:52 | 51.23405 | -0.81947 | 17918 ft | 366 kts | 252° |
| 2026-05-08 10:52 | 51.22649 | -0.85850 | 18611 ft | 370 kts | 252° |
| 2026-05-08 10:53 | 51.21886 | -0.89786 | 19248 ft | 373 kts | 252° |
| 2026-05-08 10:53 | 51.20988 | -0.93670 | 19868 ft | 375 kts | 244° |
| 2026-05-08 10:53 | 51.19643 | -0.97239 | 20499 ft | 377 kts | 233° |
| 2026-05-08 10:53 | 51.17885 | -1.00351 | 21129 ft | 380 kts | 224° |
| 2026-05-08 10:54 | 51.15957 | -1.03277 | 21750 ft | 384 kts | 224° |
| 2026-05-08 10:54 | 51.14022 | -1.06236 | 22394 ft | 387 kts | 224° |
| 2026-05-08 10:54 | 51.12215 | -1.09008 | 22964 ft | 391 kts | 224° |
| 2026-05-08 10:54 | 51.10248 | -1.12027 | 23557 ft | 394 kts | 224° |
| 2026-05-08 10:55 | 51.08275 | -1.15051 | 24083 ft | 397 kts | 224° |
| 2026-05-08 10:55 | 51.06279 | -1.18106 | 24593 ft | 400 kts | 224° |
| 2026-05-08 10:55 | 51.04263 | -1.21187 | 25077 ft | 403 kts | 224° |
| 2026-05-08 10:55 | 51.02227 | -1.24296 | 25573 ft | 406 kts | 224° |
| 2026-05-08 10:56 | 51.00182 | -1.27414 | 26039 ft | 409 kts | 224° |
| 2026-05-08 10:56 | 50.98121 | -1.30552 | 26497 ft | 412 kts | 224° |
| 2026-05-08 10:56 | 50.96027 | -1.33651 | 26943 ft | 414 kts | 221° |
| 2026-05-08 10:56 | 50.93714 | -1.36435 | 27395 ft | 417 kts | 214° |
| 2026-05-08 10:57 | 50.91272 | -1.38959 | 27825 ft | 420 kts | 214° |
| 2026-05-08 10:57 | 50.88852 | -1.41463 | 28225 ft | 423 kts | 214° |
| 2026-05-08 10:57 | 50.84004 | -1.46493 | 29024 ft | 427 kts | 214° |
| 2026-05-08 10:58 | 50.81516 | -1.49074 | 29407 ft | 429 kts | 214° |
| 2026-05-08 10:58 | 50.79013 | -1.51669 | 29768 ft | 432 kts | 214° |
| 2026-05-08 10:58 | 50.76483 | -1.54288 | 30124 ft | 434 kts | 214° |
| 2026-05-08 10:58 | 50.73947 | -1.56909 | 30468 ft | 436 kts | 214° |
| 2026-05-08 10:59 | 50.71404 | -1.59535 | 30785 ft | 438 kts | 214° |
| 2026-05-08 10:59 | 50.68845 | -1.62172 | 31111 ft | 440 kts | 214° |
| 2026-05-08 10:59 | 50.67145 | -1.63923 | 31362 ft | 440 kts | 214° |
| 2026-05-08 10:59 | 50.64583 | -1.66558 | 31789 ft | 439 kts | 214° |
| 2026-05-08 11:00 | 50.62116 | -1.69092 | 32224 ft | 438 kts | 214° |
| 2026-05-08 11:00 | 50.59567 | -1.71708 | 32638 ft | 437 kts | 214° |
| 2026-05-08 11:00 | 50.57026 | -1.74311 | 33059 ft | 436 kts | 214° |
| 2026-05-08 11:00 | 50.54491 | -1.76905 | 33478 ft | 435 kts | 214° |
| 2026-05-08 11:01 | 50.51956 | -1.79497 | 33877 ft | 433 kts | 214° |
| 2026-05-08 11:01 | 50.49428 | -1.82077 | 34227 ft | 433 kts | 214° |
| 2026-05-08 11:01 | 50.46909 | -1.84646 | 34494 ft | 433 kts | 214° |
| 2026-05-08 11:01 | 50.44381 | -1.87220 | 34746 ft | 433 kts | 214° |
| 2026-05-08 11:02 | 50.41848 | -1.89795 | 35002 ft | 434 kts | 214° |
| 2026-05-08 11:02 | 50.36810 | -1.94909 | 35495 ft | 434 kts | 214° |
| 2026-05-08 11:02 | 50.34233 | -1.97520 | 35743 ft | 435 kts | 214° |
| 2026-05-08 11:03 | 50.31754 | -2.00029 | 35968 ft | 435 kts | 214° |
| 2026-05-08 11:03 | 50.29189 | -2.02622 | 36205 ft | 435 kts | 214° |
| 2026-05-08 11:03 | 50.26650 | -2.05186 | 36428 ft | 435 kts | 213° |
| 2026-05-08 11:03 | 50.24097 | -2.07759 | 36630 ft | 436 kts | 213° |
| 2026-05-08 11:04 | 50.21532 | -2.10294 | 36837 ft | 436 kts | 213° |
| 2026-05-08 11:04 | 50.18956 | -2.12798 | 37020 ft | 437 kts | 212° |
| 2026-05-08 11:04 | 50.16368 | -2.15303 | 37048 ft | 436 kts | 212° |
| 2026-05-08 11:05 | 50.11226 | -2.20285 | 37046 ft | 435 kts | 213° |
| 2026-05-08 11:05 | 50.06085 | -2.25267 | 37048 ft | 435 kts | 212° |
| 2026-05-08 11:06 | 50.00979 | -2.30205 | 37048 ft | 434 kts | 213° |
| 2026-05-08 11:06 | 49.95838 | -2.35166 | 37049 ft | 434 kts | 212° |
| 2026-05-08 11:07 | 49.90460 | -2.39479 | 37275 ft | 437 kts | 205° |
| 2026-05-08 11:07 | 49.87721 | -2.41377 | 37483 ft | 437 kts | 205° |
| 2026-05-08 11:07 | 49.84951 | -2.43305 | 37681 ft | 437 kts | 205° |
| 2026-05-08 11:07 | 49.82176 | -2.45242 | 37874 ft | 437 kts | 205° |
| 2026-05-08 11:08 | 49.79408 | -2.47174 | 38076 ft | 437 kts | 205° |
| 2026-05-08 11:08 | 49.76644 | -2.49101 | 38266 ft | 437 kts | 205° |
| 2026-05-08 11:08 | 49.73872 | -2.51031 | 38432 ft | 437 kts | 205° |
| 2026-05-08 11:08 | 49.71092 | -2.52963 | 38602 ft | 437 kts | 205° |
| 2026-05-08 11:09 | 49.68312 | -2.54892 | 38753 ft | 437 kts | 205° |
| 2026-05-08 11:09 | 49.65539 | -2.56813 | 38864 ft | 437 kts | 205° |
| 2026-05-08 11:09 | 49.62761 | -2.58735 | 38984 ft | 437 kts | 205° |
| 2026-05-08 11:10 | 49.57222 | -2.62560 | 39025 ft | 436 kts | 205° |
| 2026-05-08 11:10 | 49.51679 | -2.66378 | 39021 ft | 436 kts | 205° |
| 2026-05-08 11:11 | 49.46179 | -2.70158 | 39021 ft | 436 kts | 205° |
| 2026-05-08 11:11 | 49.40649 | -2.73949 | 39020 ft | 435 kts | 205° |
| 2026-05-08 11:12 | 49.35113 | -2.77734 | 39022 ft | 435 kts | 205° |
| 2026-05-08 11:12 | 49.29578 | -2.81509 | 39022 ft | 435 kts | 205° |
| 2026-05-08 11:13 | 49.24053 | -2.85269 | 39019 ft | 434 kts | 205° |
| 2026-05-08 11:13 | 49.18535 | -2.89014 | 39018 ft | 434 kts | 205° |
| 2026-05-08 11:14 | 49.13009 | -2.92755 | 39018 ft | 434 kts | 205° |
| 2026-05-08 11:14 | 49.07499 | -2.96477 | 39018 ft | 433 kts | 205° |
| 2026-05-08 11:15 | 49.01981 | -3.00195 | 39014 ft | 433 kts | 205° |
| 2026-05-08 11:15 | 48.96505 | -3.03876 | 39012 ft | 433 kts | 205° |
| 2026-05-08 11:16 | 48.90996 | -3.07569 | 39007 ft | 432 kts | 205° |
| 2026-05-08 11:16 | 48.85483 | -3.11257 | 38999 ft | 432 kts | 205° |
| 2026-05-08 11:17 | 48.79978 | -3.14931 | 38993 ft | 432 kts | 205° |
| 2026-05-08 11:17 | 48.74472 | -3.18596 | 38994 ft | 432 kts | 205° |
| 2026-05-08 11:18 | 48.68969 | -3.22250 | 38990 ft | 431 kts | 205° |
| 2026-05-08 11:18 | 48.63539 | -3.25848 | 38999 ft | 431 kts | 205° |
| 2026-05-08 11:19 | 48.58078 | -3.29458 | 38991 ft | 431 kts | 205° |
| 2026-05-08 11:19 | 48.52589 | -3.33077 | 38988 ft | 431 kts | 205° |
| 2026-05-08 11:20 | 48.47076 | -3.36703 | 38997 ft | 431 kts | 205° |
| 2026-05-08 11:20 | 48.41573 | -3.40315 | 38991 ft | 431 kts | 204° |
| 2026-05-08 11:21 | 48.36076 | -3.43914 | 38982 ft | 431 kts | 204° |
| 2026-05-08 11:21 | 48.30609 | -3.47485 | 38974 ft | 430 kts | 204° |
| 2026-05-08 11:22 | 48.25115 | -3.51065 | 38971 ft | 430 kts | 204° |
| 2026-05-08 11:22 | 48.19628 | -3.54631 | 38963 ft | 430 kts | 204° |
| 2026-05-08 11:23 | 48.14141 | -3.58190 | 38962 ft | 429 kts | 204° |
| 2026-05-08 11:23 | 48.08660 | -3.61738 | 38956 ft | 429 kts | 204° |
| 2026-05-08 11:24 | 48.03185 | -3.65272 | 38954 ft | 429 kts | 204° |
| 2026-05-08 11:24 | 47.97702 | -3.68803 | 38951 ft | 428 kts | 204° |
| 2026-05-08 11:25 | 47.92267 | -3.72295 | 38951 ft | 428 kts | 204° |
| 2026-05-08 11:25 | 47.86788 | -3.75808 | 38949 ft | 428 kts | 204° |
| 2026-05-08 11:26 | 47.81316 | -3.79308 | 38951 ft | 428 kts | 204° |
| 2026-05-08 11:26 | 47.75841 | -3.82801 | 38950 ft | 428 kts | 204° |
| 2026-05-08 11:27 | 47.70372 | -3.86284 | 38949 ft | 428 kts | 204° |
| 2026-05-08 11:27 | 47.64895 | -3.89763 | 38949 ft | 428 kts | 204° |
| 2026-05-08 11:28 | 47.59417 | -3.93235 | 38946 ft | 428 kts | 204° |
| 2026-05-08 11:28 | 47.53939 | -3.96698 | 38947 ft | 428 kts | 204° |
| 2026-05-08 11:29 | 47.48462 | -4.00154 | 38954 ft | 428 kts | 204° |
| 2026-05-08 11:29 | 47.43016 | -4.03582 | 38949 ft | 428 kts | 204° |
| 2026-05-08 11:30 | 47.37536 | -4.07024 | 38952 ft | 428 kts | 204° |
| 2026-05-08 11:30 | 47.32078 | -4.10444 | 38950 ft | 428 kts | 204° |
| 2026-05-08 11:31 | 47.26579 | -4.13882 | 38951 ft | 428 kts | 204° |
| 2026-05-08 11:31 | 47.21130 | -4.17281 | 38949 ft | 428 kts | 204° |
| 2026-05-08 11:32 | 47.15653 | -4.20690 | 38947 ft | 427 kts | 204° |
| 2026-05-08 11:32 | 47.10170 | -4.24098 | 38947 ft | 427 kts | 204° |
| 2026-05-08 11:33 | 47.04662 | -4.27391 | 38945 ft | 427 kts | 201° |
| 2026-05-08 11:33 | 46.99085 | -4.30438 | 38941 ft | 427 kts | 201° |
| 2026-05-08 11:34 | 46.93514 | -4.33511 | 38940 ft | 427 kts | 201° |
| 2026-05-08 11:34 | 46.87953 | -4.36561 | 38861 ft | 424 kts | 201° |
| 2026-05-08 11:35 | 46.82517 | -4.39529 | 38934 ft | 418 kts | 201° |
| 2026-05-08 11:35 | 46.77048 | -4.42508 | 38928 ft | 420 kts | 201° |
| 2026-05-08 11:36 | 46.71572 | -4.45485 | 38922 ft | 420 kts | 201° |
| 2026-05-08 11:36 | 46.66090 | -4.48458 | 38919 ft | 420 kts | 201° |
| 2026-05-08 11:37 | 46.60614 | -4.51422 | 38918 ft | 419 kts | 201° |
| 2026-05-08 11:37 | 46.55144 | -4.54376 | 38914 ft | 419 kts | 201° |
| 2026-05-08 11:38 | 46.49674 | -4.57324 | 38909 ft | 419 kts | 200° |
| 2026-05-08 11:38 | 46.44203 | -4.60266 | 38904 ft | 419 kts | 200° |
| 2026-05-08 11:39 | 46.38733 | -4.63201 | 38895 ft | 419 kts | 200° |
| 2026-05-08 11:39 | 46.33295 | -4.66113 | 38893 ft | 419 kts | 200° |
| 2026-05-08 11:40 | 46.27859 | -4.69017 | 38892 ft | 419 kts | 200° |
| 2026-05-08 11:40 | 46.22381 | -4.71938 | 38890 ft | 420 kts | 200° |
| 2026-05-08 11:41 | 46.16902 | -4.74853 | 38890 ft | 420 kts | 200° |
| 2026-05-08 11:41 | 46.11412 | -4.77767 | 38890 ft | 420 kts | 200° |
| 2026-05-08 11:42 | 46.05920 | -4.80677 | 38890 ft | 420 kts | 200° |
| 2026-05-08 11:42 | 46.00425 | -4.83582 | 38888 ft | 421 kts | 200° |
| 2026-05-08 11:43 | 45.94927 | -4.86482 | 38887 ft | 421 kts | 200° |
| 2026-05-08 11:43 | 45.89425 | -4.89378 | 38883 ft | 421 kts | 199° |
| 2026-05-08 11:44 | 45.83957 | -4.92250 | 38882 ft | 421 kts | 199° |
| 2026-05-08 11:44 | 45.78443 | -4.95140 | 38878 ft | 421 kts | 199° |
| 2026-05-08 11:45 | 45.72931 | -4.98023 | 38877 ft | 422 kts | 199° |
| 2026-05-08 11:45 | 45.67422 | -5.00899 | 38874 ft | 422 kts | 199° |
| 2026-05-08 11:46 | 45.61967 | -5.03740 | 38869 ft | 422 kts | 199° |
| 2026-05-08 11:46 | 45.56450 | -5.06608 | 38868 ft | 422 kts | 199° |
| 2026-05-08 11:47 | 45.50967 | -5.09451 | 38870 ft | 422 kts | 199° |
| 2026-05-08 11:47 | 45.45449 | -5.12308 | 38868 ft | 422 kts | 199° |
| 2026-05-08 11:48 | 45.39933 | -5.15157 | 38867 ft | 422 kts | 199° |
| 2026-05-08 11:48 | 45.35333 | -5.17529 | 38866 ft | 422 kts | 199° |
| 2026-05-08 11:49 | 45.29840 | -5.20355 | 38866 ft | 422 kts | 199° |
| 2026-05-08 11:49 | 45.24328 | -5.23186 | 38864 ft | 422 kts | 199° |
| 2026-05-08 11:50 | 45.18802 | -5.26018 | 38866 ft | 422 kts | 199° |
| 2026-05-08 11:50 | 45.13290 | -5.28837 | 38863 ft | 422 kts | 199° |
| 2026-05-08 11:51 | 45.07775 | -5.31651 | 39031 ft | 417 kts | 199° |
| 2026-05-08 11:51 | 45.05065 | -5.33032 | 39484 ft | 407 kts | 199° |
| 2026-05-08 11:51 | 45.02428 | -5.34375 | 39598 ft | 403 kts | 199° |
| 2026-05-08 11:51 | 44.99819 | -5.35701 | 39268 ft | 403 kts | 199° |
| 2026-05-08 11:52 | 44.97172 | -5.37046 | 39101 ft | 408 kts | 199° |
| 2026-05-08 11:52 | 44.94477 | -5.38413 | 38988 ft | 415 kts | 199° |
| 2026-05-08 11:52 | 44.91735 | -5.39802 | 38897 ft | 421 kts | 199° |
| 2026-05-08 11:53 | 44.86195 | -5.42607 | 38872 ft | 424 kts | 199° |
| 2026-05-08 11:53 | 44.80642 | -5.45413 | 38873 ft | 424 kts | 199° |
| 2026-05-08 11:54 | 44.75089 | -5.48213 | 38875 ft | 424 kts | 199° |
| 2026-05-08 11:54 | 44.69531 | -5.51010 | 38874 ft | 424 kts | 199° |
| 2026-05-08 11:55 | 44.63963 | -5.53807 | 38876 ft | 425 kts | 199° |
| 2026-05-08 11:55 | 44.58337 | -5.56324 | 38877 ft | 425 kts | 194° |
| 2026-05-08 11:56 | 44.52624 | -5.58512 | 38880 ft | 425 kts | 194° |
| 2026-05-08 11:56 | 44.46916 | -5.60714 | 38880 ft | 426 kts | 194° |
| 2026-05-08 11:57 | 44.41228 | -5.62901 | 38880 ft | 426 kts | 194° |
| 2026-05-08 11:57 | 44.35506 | -5.65093 | 38883 ft | 427 kts | 194° |
| 2026-05-08 11:58 | 44.29771 | -5.67286 | 38888 ft | 427 kts | 194° |
| 2026-05-08 11:58 | 44.24043 | -5.69470 | 38886 ft | 427 kts | 194° |
| 2026-05-08 11:59 | 44.15447 | -5.72741 | 38887 ft | 426 kts | 194° |
| 2026-05-08 11:59 | 44.09720 | -5.74915 | 38887 ft | 426 kts | 194° |
| 2026-05-08 12:00 | 44.03988 | -5.77086 | 38891 ft | 427 kts | 194° |
| 2026-05-08 12:00 | 43.98301 | -5.79236 | 38891 ft | 426 kts | 194° |
| 2026-05-08 12:01 | 43.92563 | -5.81401 | 38898 ft | 427 kts | 194° |
| 2026-05-08 12:01 | 43.86819 | -5.83563 | 38901 ft | 427 kts | 194° |
| 2026-05-08 12:02 | 43.81077 | -5.85720 | 38907 ft | 427 kts | 194° |
| 2026-05-08 12:02 | 43.75360 | -5.87864 | 38912 ft | 428 kts | 194° |
| 2026-05-08 12:03 | 43.69597 | -5.90021 | 38910 ft | 429 kts | 194° |
| 2026-05-08 12:03 | 43.63810 | -5.92182 | 38914 ft | 430 kts | 194° |
| 2026-05-08 12:04 | 43.58028 | -5.94337 | 38911 ft | 431 kts | 194° |
| 2026-05-08 12:04 | 43.52239 | -5.96491 | 38912 ft | 431 kts | 194° |
| 2026-05-08 12:05 | 43.46480 | -5.98630 | 38915 ft | 431 kts | 194° |
| 2026-05-08 12:05 | 43.40650 | -6.00790 | 38913 ft | 431 kts | 195° |
| 2026-05-08 12:06 | 43.34903 | -6.02916 | 38917 ft | 431 kts | 195° |
| 2026-05-08 12:06 | 43.29118 | -6.05052 | 38921 ft | 430 kts | 195° |
| 2026-05-08 12:07 | 43.23329 | -6.07184 | 38923 ft | 431 kts | 195° |
| 2026-05-08 12:07 | 43.17549 | -6.09309 | 38917 ft | 428 kts | 195° |
| 2026-05-08 12:08 | 43.11821 | -6.11412 | 38922 ft | 425 kts | 195° |
| 2026-05-08 12:08 | 43.06105 | -6.13505 | 38916 ft | 424 kts | 195° |
| 2026-05-08 12:09 | 43.00382 | -6.15597 | 38919 ft | 426 kts | 195° |
| 2026-05-08 12:09 | 42.94686 | -6.17675 | 38922 ft | 426 kts | 195° |
| 2026-05-08 12:10 | 42.88951 | -6.19763 | 38919 ft | 427 kts | 195° |
| 2026-05-08 12:10 | 42.83198 | -6.21854 | 38923 ft | 427 kts | 195° |
| 2026-05-08 12:11 | 42.77443 | -6.23941 | 38922 ft | 428 kts | 195° |
| 2026-05-08 12:11 | 42.71694 | -6.26022 | 38919 ft | 427 kts | 195° |
| 2026-05-08 12:12 | 42.65948 | -6.28097 | 38910 ft | 427 kts | 195° |
| 2026-05-08 12:12 | 42.60204 | -6.30169 | 38908 ft | 427 kts | 195° |
| 2026-05-08 12:13 | 42.54455 | -6.32239 | 38911 ft | 427 kts | 195° |
| 2026-05-08 12:13 | 42.48758 | -6.34286 | 38917 ft | 426 kts | 195° |
| 2026-05-08 12:14 | 42.43024 | -6.36343 | 38916 ft | 426 kts | 195° |
| 2026-05-08 12:14 | 42.37280 | -6.38398 | 38923 ft | 426 kts | 195° |
| 2026-05-08 12:15 | 42.31567 | -6.40439 | 38915 ft | 425 kts | 195° |
| 2026-05-08 12:15 | 42.25853 | -6.42477 | 38907 ft | 424 kts | 195° |
| 2026-05-08 12:16 | 42.20147 | -6.44508 | 38920 ft | 423 kts | 195° |
| 2026-05-08 12:16 | 42.14483 | -6.46520 | 38922 ft | 423 kts | 195° |
| 2026-05-08 12:17 | 42.08790 | -6.48539 | 38919 ft | 423 kts | 195° |
| 2026-05-08 12:17 | 42.03093 | -6.50555 | 38913 ft | 423 kts | 195° |
| 2026-05-08 12:18 | 41.97402 | -6.52566 | 38913 ft | 423 kts | 195° |
| 2026-05-08 12:18 | 41.91710 | -6.54573 | 38921 ft | 423 kts | 195° |
| 2026-05-08 12:19 | 41.86010 | -6.56580 | 38910 ft | 423 kts | 195° |
| 2026-05-08 12:19 | 41.80311 | -6.58582 | 38917 ft | 423 kts | 195° |
| 2026-05-08 12:20 | 41.74606 | -6.60583 | 38910 ft | 423 kts | 196° |
| 2026-05-08 12:20 | 41.68939 | -6.62569 | 38906 ft | 424 kts | 196° |
| 2026-05-08 12:21 | 41.63232 | -6.64581 | 38905 ft | 424 kts | 196° |
| 2026-05-08 12:21 | 41.57528 | -6.66592 | 38900 ft | 424 kts | 196° |
| 2026-05-08 12:22 | 41.51807 | -6.68605 | 38897 ft | 425 kts | 196° |
| 2026-05-08 12:22 | 41.46087 | -6.70613 | 38899 ft | 425 kts | 196° |
| 2026-05-08 12:23 | 41.40357 | -6.72621 | 38900 ft | 426 kts | 196° |
| 2026-05-08 12:23 | 41.34626 | -6.74625 | 38907 ft | 426 kts | 196° |
| 2026-05-08 12:24 | 41.28877 | -6.76632 | 38908 ft | 427 kts | 196° |
| 2026-05-08 12:24 | 41.23159 | -6.78624 | 38907 ft | 427 kts | 196° |
| 2026-05-08 12:25 | 41.17396 | -6.80629 | 38910 ft | 428 kts | 196° |
| 2026-05-08 12:25 | 41.11642 | -6.82626 | 38898 ft | 425 kts | 196° |
| 2026-05-08 12:26 | 41.05923 | -6.84608 | 38900 ft | 425 kts | 197° |
| 2026-05-08 12:26 | 41.00190 | -6.86592 | 38900 ft | 425 kts | 197° |
| 2026-05-08 12:27 | 40.94468 | -6.88568 | 38903 ft | 424 kts | 197° |
| 2026-05-08 12:27 | 40.88752 | -6.90539 | 38901 ft | 425 kts | 197° |
| 2026-05-08 12:28 | 40.83032 | -6.92506 | 38908 ft | 425 kts | 197° |
| 2026-05-08 12:28 | 40.77345 | -6.94460 | 38896 ft | 423 kts | 197° |
| 2026-05-08 12:29 | 40.71657 | -6.96409 | 38901 ft | 422 kts | 197° |
| 2026-05-08 12:29 | 40.65981 | -6.98352 | 38901 ft | 422 kts | 197° |
| 2026-05-08 12:30 | 40.60300 | -7.00293 | 38903 ft | 422 kts | 197° |
| 2026-05-08 12:30 | 40.54625 | -7.02229 | 38907 ft | 421 kts | 197° |
| 2026-05-08 12:31 | 40.48954 | -7.04159 | 38906 ft | 420 kts | 197° |
| 2026-05-08 12:31 | 40.43297 | -7.06082 | 38909 ft | 420 kts | 197° |
| 2026-05-08 12:32 | 40.37648 | -7.07999 | 38909 ft | 419 kts | 197° |
| 2026-05-08 12:32 | 40.32013 | -7.09908 | 38912 ft | 419 kts | 197° |
| 2026-05-08 12:33 | 40.26368 | -7.11821 | 38915 ft | 419 kts | 197° |
| 2026-05-08 12:33 | 40.20730 | -7.13746 | 38919 ft | 418 kts | 198° |
| 2026-05-08 12:34 | 40.15095 | -7.15667 | 38918 ft | 418 kts | 198° |
| 2026-05-08 12:34 | 40.09478 | -7.17576 | 38923 ft | 417 kts | 198° |
| 2026-05-08 12:35 | 40.04804 | -7.19163 | 38916 ft | 417 kts | 198° |
| 2026-05-08 12:35 | 39.98272 | -7.21376 | 38916 ft | 417 kts | 198° |
| 2026-05-08 12:36 | 39.93567 | -7.22967 | 38912 ft | 416 kts | 198° |
| 2026-05-08 12:36 | 39.87960 | -7.24861 | 38911 ft | 417 kts | 198° |
| 2026-05-08 12:37 | 39.82373 | -7.26744 | 38910 ft | 416 kts | 198° |
| 2026-05-08 12:37 | 39.76770 | -7.28630 | 38904 ft | 416 kts | 198° |
| 2026-05-08 12:38 | 39.71167 | -7.30513 | 38907 ft | 415 kts | 198° |
| 2026-05-08 12:38 | 39.65570 | -7.32390 | 38903 ft | 415 kts | 198° |
| 2026-05-08 12:39 | 39.59972 | -7.34265 | 38899 ft | 415 kts | 198° |
| 2026-05-08 12:39 | 39.54412 | -7.36124 | 38901 ft | 415 kts | 198° |
| 2026-05-08 12:40 | 39.48691 | -7.37385 | 38902 ft | 418 kts | 192° |
| 2026-05-08 12:40 | 39.42919 | -7.38386 | 38906 ft | 418 kts | 192° |
| 2026-05-08 12:41 | 39.37146 | -7.39397 | 38906 ft | 419 kts | 192° |
| 2026-05-08 12:41 | 39.31370 | -7.40408 | 38903 ft | 419 kts | 192° |
| 2026-05-08 12:42 | 39.25594 | -7.41416 | 38912 ft | 419 kts | 192° |
| 2026-05-08 12:42 | 39.19810 | -7.42424 | 38905 ft | 419 kts | 192° |
| 2026-05-08 12:43 | 39.14067 | -7.43423 | 38907 ft | 419 kts | 192° |
| 2026-05-08 12:43 | 39.08297 | -7.44426 | 38909 ft | 418 kts | 192° |
| 2026-05-08 12:44 | 39.02524 | -7.45427 | 38909 ft | 418 kts | 192° |
| 2026-05-08 12:44 | 38.96758 | -7.46426 | 38906 ft | 418 kts | 192° |
| 2026-05-08 12:45 | 38.91008 | -7.47420 | 38910 ft | 417 kts | 193° |
| 2026-05-08 12:45 | 38.85281 | -7.48409 | 38906 ft | 417 kts | 193° |
| 2026-05-08 12:46 | 38.79534 | -7.49399 | 38904 ft | 416 kts | 193° |
| 2026-05-08 12:46 | 38.73794 | -7.50387 | 38907 ft | 415 kts | 193° |
| 2026-05-08 12:47 | 38.68072 | -7.51370 | 38906 ft | 415 kts | 193° |
| 2026-05-08 12:47 | 38.62345 | -7.52352 | 38901 ft | 414 kts | 193° |
| 2026-05-08 12:48 | 38.56641 | -7.53328 | 38903 ft | 413 kts | 193° |
| 2026-05-08 12:48 | 38.50969 | -7.54298 | 38905 ft | 413 kts | 193° |
| 2026-05-08 12:49 | 38.45280 | -7.55269 | 38905 ft | 412 kts | 193° |
| 2026-05-08 12:49 | 38.39603 | -7.56237 | 38907 ft | 411 kts | 193° |
| 2026-05-08 12:50 | 38.33929 | -7.57202 | 38907 ft | 410 kts | 193° |
| 2026-05-08 12:50 | 38.28279 | -7.58161 | 38912 ft | 409 kts | 193° |
| 2026-05-08 12:51 | 38.19832 | -7.59593 | 38913 ft | 407 kts | 194° |
| 2026-05-08 12:52 | 38.14244 | -7.60537 | 38903 ft | 404 kts | 194° |
| 2026-05-08 12:52 | 38.05868 | -7.61903 | 38906 ft | 405 kts | 192° |
| 2026-05-08 12:53 | 38.00287 | -7.62595 | 38905 ft | 405 kts | 192° |
| 2026-05-08 12:53 | 37.94682 | -7.63296 | 38906 ft | 404 kts | 192° |
| 2026-05-08 12:54 | 37.89088 | -7.64017 | 38908 ft | 404 kts | 192° |
| 2026-05-08 12:54 | 37.83493 | -7.64743 | 38911 ft | 404 kts | 192° |
| 2026-05-08 12:55 | 37.77901 | -7.65466 | 38911 ft | 403 kts | 193° |
| 2026-05-08 12:55 | 37.72333 | -7.66185 | 38916 ft | 402 kts | 193° |
| 2026-05-08 12:56 | 37.66748 | -7.66905 | 38909 ft | 402 kts | 193° |
| 2026-05-08 12:56 | 37.61223 | -7.67616 | 38920 ft | 401 kts | 193° |
| 2026-05-08 12:57 | 37.55674 | -7.68329 | 38916 ft | 401 kts | 193° |
| 2026-05-08 12:57 | 37.50127 | -7.69041 | 38926 ft | 400 kts | 193° |
| 2026-05-08 12:58 | 37.44588 | -7.69750 | 38926 ft | 399 kts | 193° |
| 2026-05-08 12:58 | 37.39064 | -7.70457 | 38927 ft | 398 kts | 193° |
| 2026-05-08 12:59 | 37.33561 | -7.71160 | 38928 ft | 397 kts | 193° |
| 2026-05-08 12:59 | 37.28057 | -7.71862 | 38926 ft | 396 kts | 193° |
| 2026-05-08 13:00 | 37.22591 | -7.72558 | 38928 ft | 394 kts | 193° |
| 2026-05-08 13:00 | 37.17145 | -7.73251 | 38927 ft | 394 kts | 193° |
| 2026-05-08 13:01 | 37.11727 | -7.73940 | 38937 ft | 392 kts | 194° |
| 2026-05-08 13:01 | 37.06269 | -7.74631 | 38937 ft | 390 kts | 194° |
| 2026-05-08 13:02 | 37.00909 | -7.75310 | 38937 ft | 391 kts | 194° |
| 2026-05-08 13:02 | 36.95503 | -7.75995 | 38936 ft | 390 kts | 194° |
| 2026-05-08 13:03 | 36.90101 | -7.76677 | 38935 ft | 389 kts | 194° |
| 2026-05-08 13:03 | 36.84712 | -7.77356 | 38936 ft | 389 kts | 194° |
| 2026-05-08 13:04 | 36.79336 | -7.78033 | 38935 ft | 388 kts | 194° |
| 2026-05-08 13:04 | 36.73967 | -7.78709 | 38938 ft | 387 kts | 194° |
| 2026-05-08 13:05 | 36.68604 | -7.79382 | 38937 ft | 387 kts | 194° |
| 2026-05-08 13:05 | 36.63249 | -7.80054 | 38936 ft | 386 kts | 194° |
| 2026-05-08 13:06 | 36.57902 | -7.80723 | 38936 ft | 386 kts | 195° |
| 2026-05-08 13:06 | 36.52564 | -7.81391 | 38940 ft | 385 kts | 195° |
| 2026-05-08 13:07 | 36.47235 | -7.82056 | 38936 ft | 385 kts | 195° |
| 2026-05-08 13:07 | 36.41905 | -7.82721 | 38941 ft | 385 kts | 195° |
| 2026-05-08 13:08 | 36.36579 | -7.83384 | 38941 ft | 384 kts | 195° |
| 2026-05-08 13:08 | 36.31265 | -7.84045 | 38941 ft | 383 kts | 195° |
| 2026-05-08 13:09 | 36.25991 | -7.84700 | 38941 ft | 383 kts | 195° |
| 2026-05-08 13:09 | 36.20701 | -7.85357 | 38943 ft | 382 kts | 195° |
| 2026-05-08 13:10 | 36.15404 | -7.86013 | 38944 ft | 382 kts | 195° |
| 2026-05-08 13:10 | 36.10120 | -7.86666 | 38938 ft | 381 kts | 195° |
| 2026-05-08 13:11 | 36.04850 | -7.87317 | 38933 ft | 380 kts | 195° |
| 2026-05-08 13:11 | 35.99589 | -7.87965 | 38938 ft | 380 kts | 195° |
| 2026-05-08 13:12 | 35.94259 | -7.88130 | 38936 ft | 390 kts | 188° |
| 2026-05-08 13:12 | 35.88824 | -7.87629 | 38931 ft | 392 kts | 187° |
| 2026-05-08 13:13 | 35.83385 | -7.87121 | 38928 ft | 391 kts | 187° |
| 2026-05-08 13:13 | 35.77952 | -7.86627 | 38930 ft | 391 kts | 187° |
| 2026-05-08 13:14 | 35.72534 | -7.86137 | 38927 ft | 390 kts | 187° |
| 2026-05-08 13:14 | 35.67167 | -7.85652 | 38929 ft | 390 kts | 187° |
| 2026-05-08 13:15 | 35.61697 | -7.85158 | 38932 ft | 390 kts | 187° |
| 2026-05-08 13:15 | 35.56319 | -7.84673 | 38929 ft | 390 kts | 187° |
| 2026-05-08 13:16 | 35.50908 | -7.84185 | 38931 ft | 390 kts | 187° |
| 2026-05-08 13:16 | 35.45485 | -7.83698 | 38936 ft | 390 kts | 187° |
| 2026-05-08 13:17 | 35.40067 | -7.83212 | 38933 ft | 390 kts | 188° |
| 2026-05-08 13:17 | 35.34642 | -7.82753 | 38931 ft | 390 kts | 188° |
| 2026-05-08 13:18 | 35.29218 | -7.82300 | 38938 ft | 391 kts | 188° |
| 2026-05-08 13:18 | 35.23793 | -7.81844 | 38939 ft | 391 kts | 188° |
| 2026-05-08 13:19 | 35.18368 | -7.81387 | 38943 ft | 391 kts | 188° |
| 2026-05-08 13:19 | 35.12928 | -7.80929 | 38942 ft | 391 kts | 188° |
| 2026-05-08 13:20 | 35.07493 | -7.80474 | 38943 ft | 391 kts | 188° |
| 2026-05-08 13:20 | 35.02059 | -7.80019 | 38944 ft | 391 kts | 188° |
| 2026-05-08 13:21 | 34.96622 | -7.79563 | 38943 ft | 392 kts | 188° |
| 2026-05-08 13:21 | 34.91192 | -7.79109 | 38943 ft | 392 kts | 188° |
| 2026-05-08 13:22 | 34.85784 | -7.78658 | 38940 ft | 392 kts | 187° |
| 2026-05-08 13:22 | 34.80343 | -7.78204 | 38943 ft | 392 kts | 187° |
| 2026-05-08 13:23 | 34.75824 | -7.77828 | 38943 ft | 392 kts | 187° |
| 2026-05-08 13:23 | 34.70384 | -7.77405 | 38936 ft | 391 kts | 188° |
| 2026-05-08 13:24 | 34.64952 | -7.77039 | 38935 ft | 391 kts | 188° |
| 2026-05-08 13:24 | 34.59518 | -7.76667 | 38936 ft | 391 kts | 188° |
| 2026-05-08 13:25 | 34.54081 | -7.76290 | 38939 ft | 391 kts | 188° |
| 2026-05-08 13:25 | 34.48645 | -7.75911 | 38937 ft | 391 kts | 188° |
| 2026-05-08 13:26 | 34.43211 | -7.75533 | 38938 ft | 391 kts | 188° |
| 2026-05-08 13:26 | 34.37767 | -7.75155 | 38941 ft | 392 kts | 188° |
| 2026-05-08 13:27 | 34.32329 | -7.74778 | 38938 ft | 392 kts | 188° |
| 2026-05-08 13:27 | 34.26914 | -7.74403 | 38936 ft | 392 kts | 187° |
| 2026-05-08 13:28 | 34.21457 | -7.74025 | 38937 ft | 392 kts | 187° |
| 2026-05-08 13:28 | 34.15998 | -7.73622 | 38933 ft | 394 kts | 187° |
| 2026-05-08 13:29 | 34.10514 | -7.73097 | 38935 ft | 395 kts | 186° |
| 2026-05-08 13:29 | 34.05034 | -7.72573 | 38929 ft | 395 kts | 186° |
| 2026-05-08 13:30 | 33.99549 | -7.72064 | 38933 ft | 396 kts | 186° |
| 2026-05-08 13:30 | 33.94057 | -7.71558 | 38932 ft | 396 kts | 186° |
| 2026-05-08 13:31 | 33.88549 | -7.71051 | 38927 ft | 397 kts | 186° |
| 2026-05-08 13:31 | 33.83041 | -7.70545 | 38923 ft | 397 kts | 186° |
| 2026-05-08 13:32 | 33.77517 | -7.70038 | 38918 ft | 398 kts | 186° |
| 2026-05-08 13:32 | 33.72025 | -7.69534 | 38916 ft | 399 kts | 186° |
| 2026-05-08 13:33 | 33.66480 | -7.69026 | 38917 ft | 399 kts | 186° |
| 2026-05-08 13:33 | 33.60939 | -7.68519 | 38910 ft | 400 kts | 186° |
| 2026-05-08 13:34 | 33.55420 | -7.68309 | 38911 ft | 389 kts | 194° |
| 2026-05-08 13:34 | 33.50213 | -7.69534 | 38910 ft | 376 kts | 206° |
| 2026-05-08 13:35 | 33.45552 | -7.72061 | 38913 ft | 367 kts | 215° |
| 2026-05-08 13:35 | 33.41092 | -7.75049 | 38911 ft | 368 kts | 215° |
| 2026-05-08 13:36 | 33.36612 | -7.78018 | 38913 ft | 368 kts | 215° |
| 2026-05-08 13:36 | 33.32127 | -7.80985 | 38913 ft | 368 kts | 215° |
| 2026-05-08 13:37 | 33.27638 | -7.83954 | 38910 ft | 369 kts | 215° |
| 2026-05-08 13:37 | 33.23143 | -7.86923 | 38909 ft | 369 kts | 215° |
| 2026-05-08 13:38 | 33.18675 | -7.89870 | 38908 ft | 369 kts | 215° |
| 2026-05-08 13:38 | 33.14175 | -7.92835 | 38908 ft | 369 kts | 214° |
| 2026-05-08 13:39 | 33.09674 | -7.95798 | 38910 ft | 369 kts | 214° |
| 2026-05-08 13:39 | 33.05169 | -7.98759 | 38909 ft | 370 kts | 214° |
| 2026-05-08 13:40 | 33.00659 | -8.01720 | 38920 ft | 370 kts | 214° |
| 2026-05-08 13:40 | 32.96067 | -8.04541 | 38916 ft | 374 kts | 210° |
| 2026-05-08 13:41 | 32.91112 | -8.06596 | 38882 ft | 381 kts | 202° |
| 2026-05-08 13:41 | 32.88511 | -8.07294 | 38612 ft | 385 kts | 199° |
| 2026-05-08 13:41 | 32.85858 | -8.07766 | 38069 ft | 387 kts | 196° |
| 2026-05-08 13:42 | 32.83227 | -8.08180 | 37530 ft | 386 kts | 196° |
| 2026-05-08 13:42 | 32.80564 | -8.08607 | 36994 ft | 385 kts | 197° |
| 2026-05-08 13:42 | 32.77910 | -8.09040 | 36477 ft | 386 kts | 197° |
| 2026-05-08 13:42 | 32.75235 | -8.09480 | 35969 ft | 389 kts | 197° |
| 2026-05-08 13:43 | 32.72547 | -8.09923 | 35471 ft | 390 kts | 196° |
| 2026-05-08 13:43 | 32.69858 | -8.10364 | 34979 ft | 391 kts | 196° |
| 2026-05-08 13:43 | 32.67147 | -8.10809 | 34505 ft | 397 kts | 196° |
| 2026-05-08 13:43 | 32.64405 | -8.11260 | 34026 ft | 398 kts | 196° |
| 2026-05-08 13:44 | 32.61662 | -8.11707 | 33387 ft | 397 kts | 196° |
| 2026-05-08 13:44 | 32.58936 | -8.12150 | 32777 ft | 395 kts | 196° |
| 2026-05-08 13:44 | 32.56208 | -8.12595 | 32195 ft | 396 kts | 196° |
| 2026-05-08 13:44 | 32.53471 | -8.13044 | 31622 ft | 400 kts | 196° |
| 2026-05-08 13:45 | 32.50694 | -8.13500 | 31055 ft | 403 kts | 196° |
| 2026-05-08 13:45 | 32.47888 | -8.13959 | 30498 ft | 405 kts | 195° |
| 2026-05-08 13:45 | 32.45110 | -8.14409 | 29950 ft | 401 kts | 195° |
| 2026-05-08 13:45 | 32.42354 | -8.14853 | 29314 ft | 397 kts | 195° |
| 2026-05-08 13:46 | 32.39640 | -8.15291 | 28656 ft | 392 kts | 195° |
| 2026-05-08 13:46 | 32.36975 | -8.15724 | 28024 ft | 390 kts | 195° |
| 2026-05-08 13:46 | 32.34291 | -8.16162 | 27378 ft | 388 kts | 195° |
| 2026-05-08 13:46 | 32.31629 | -8.16596 | 26746 ft | 385 kts | 195° |
| 2026-05-08 13:47 | 32.28979 | -8.17028 | 26128 ft | 382 kts | 195° |
| 2026-05-08 13:47 | 32.26361 | -8.17454 | 25520 ft | 379 kts | 194° |
| 2026-05-08 13:47 | 32.23745 | -8.17880 | 24930 ft | 378 kts | 194° |
| 2026-05-08 13:47 | 32.21146 | -8.18303 | 24354 ft | 376 kts | 194° |
| 2026-05-08 13:48 | 32.18568 | -8.18721 | 23775 ft | 373 kts | 194° |
| 2026-05-08 13:48 | 32.15996 | -8.19133 | 23019 ft | 374 kts | 192° |
| 2026-05-08 13:48 | 32.13380 | -8.19164 | 22343 ft | 380 kts | 181° |
| 2026-05-08 13:48 | 32.10807 | -8.18554 | 21657 ft | 387 kts | 169° |
| 2026-05-08 13:49 | 32.08311 | -8.17291 | 20978 ft | 393 kts | 160° |
| 2026-05-08 13:49 | 32.05891 | -8.15818 | 20314 ft | 391 kts | 159° |
| 2026-05-08 13:49 | 32.03481 | -8.14364 | 19657 ft | 388 kts | 159° |
| 2026-05-08 13:49 | 32.01073 | -8.12921 | 19024 ft | 386 kts | 159° |
| 2026-05-08 13:50 | 31.98685 | -8.11492 | 18396 ft | 384 kts | 159° |
| 2026-05-08 13:50 | 31.96317 | -8.10077 | 17698 ft | 378 kts | 158° |
| 2026-05-08 13:50 | 31.94005 | -8.08691 | 16955 ft | 368 kts | 158° |
| 2026-05-08 13:50 | 31.91720 | -8.07326 | 16194 ft | 367 kts | 158° |
| 2026-05-08 13:51 | 31.89466 | -8.05980 | 15448 ft | 360 kts | 158° |
| 2026-05-08 13:51 | 31.87255 | -8.04659 | 14735 ft | 352 kts | 158° |
| 2026-05-08 13:51 | 31.85091 | -8.03368 | 14029 ft | 347 kts | 158° |
| 2026-05-08 13:51 | 31.82940 | -8.02086 | 13280 ft | 345 kts | 157° |
| 2026-05-08 13:52 | 31.80925 | -8.00639 | 12513 ft | 344 kts | 147° |
| 2026-05-08 13:52 | 31.79146 | -7.98760 | 11773 ft | 343 kts | 136° |
| 2026-05-08 13:52 | 31.77662 | -7.96578 | 11047 ft | 340 kts | 131° |
| 2026-05-08 13:52 | 31.76241 | -7.94379 | 10342 ft | 335 kts | 130° |
| 2026-05-08 13:53 | 31.74831 | -7.92212 | 9615 ft | 331 kts | 130° |
| 2026-05-08 13:53 | 31.73437 | -7.90080 | 8841 ft | 326 kts | 130° |
| 2026-05-08 13:53 | 31.72066 | -7.87983 | 8107 ft | 321 kts | 130° |
| 2026-05-08 13:53 | 31.70716 | -7.85924 | 7492 ft | 314 kts | 130° |
| 2026-05-08 13:54 | 31.69404 | -7.83919 | 6894 ft | 306 kts | 130° |
| 2026-05-08 13:54 | 31.68086 | -7.81986 | 6310 ft | 300 kts | 136° |
| 2026-05-08 13:54 | 31.66366 | -7.80670 | 5617 ft | 296 kts | 162° |
| 2026-05-08 13:54 | 31.64350 | -7.80332 | 4886 ft | 294 kts | 185° |
| 2026-05-08 13:55 | 31.62326 | -7.80562 | 4353 ft | 290 kts | 189° |
| 2026-05-08 13:55 | 31.60388 | -7.81036 | 3924 ft | 279 kts | 206° |
| 2026-05-08 13:55 | 31.58280 | -7.83957 | 3309 ft | 211 kts | 267° |
| 2026-05-08 13:56 | 31.58513 | -7.85511 | 3219 ft | 181 kts | 293° |
| 2026-05-08 13:56 | 31.58918 | -7.86738 | 3209 ft | 147 kts | 288° |
| 2026-05-08 13:56 | 31.59186 | -7.87871 | 3194 ft | 138 kts | 283° |
| 2026-05-08 13:56 | 31.59351 | -7.88915 | 3183 ft | 123 kts | 280° |
| 2026-05-08 13:57 | 31.59467 | -7.89878 | 3192 ft | 124 kts | 278° |
| 2026-05-08 13:57 | 31.59531 | -7.90484 | 3200 ft | 129 kts | 278° |
| 2026-05-08 13:57 | 31.59637 | -7.91517 | 3190 ft | 124 kts | 277° |
| 2026-05-08 13:57 | 31.59723 | -7.92523 | 3229 ft | 127 kts | 276° |
| 2026-05-08 13:58 | 31.59809 | -7.93571 | 3123 ft | 128 kts | 276° |
| 2026-05-08 13:58 | 31.59895 | -7.94586 | 2924 ft | 122 kts | 276° |
| 2026-05-08 13:58 | 31.59981 | -7.95601 | 2786 ft | 129 kts | 277° |
| 2026-05-08 13:58 | 31.60070 | -7.96663 | 2598 ft | 132 kts | 277° |
| 2026-05-08 13:59 | 31.60152 | -7.97707 | 2353 ft | 124 kts | 278° |
| 2026-05-08 13:59 | 31.60245 | -7.98713 | 2061 ft | 127 kts | 279° |
| 2026-05-08 13:59 | 31.60344 | -7.99717 | 1865 ft | 122 kts | 277° |
| 2026-05-08 13:59 | 31.60440 | -8.00695 | 1710 ft | 123 kts | 275° |
| 2026-05-08 14:00 | 31.60534 | -8.01698 | 1611 ft | 122 kts | 275° |
| 2026-05-08 14:00 | 31.60609 | -8.02660 | 1547 ft | 90 kts | 275° |
| 2026-05-08 14:00 | 31.60642 | -8.03080 | 1537 ft | 41 kts | 275° |
| 2026-05-08 14:00 | 31.60666 | -8.03400 | 1534 ft | 38 kts | 275° |
| 2026-05-08 14:01 | 31.60695 | -8.03696 | 1532 ft | 35 kts | 277° |
| 2026-05-08 14:01 | 31.60721 | -8.03982 | 1529 ft | 35 kts | 276° |
| 2026-05-08 14:01 | 31.60743 | -8.04196 | 1525 ft | 14 kts | 276° |
| 2026-05-08 14:01 | 31.60750 | -8.04266 | 1526 ft | 0 kts | 276° |
| 2026-05-08 14:02 | 31.60751 | -8.04279 | 1520 ft | 7 kts | 276° |
| 2026-05-08 14:02 | 31.60758 | -8.04361 | 1521 ft | 13 kts | 271° |
| 2026-05-08 14:02 | 31.60732 | -8.04387 | 1519 ft | 3 kts | 169° |
| 2026-05-08 14:02 | 31.60682 | -8.04389 | 1521 ft | 8 kts | 186° |
| 2026-05-08 14:03 | 31.60585 | -8.04384 | 1525 ft | 12 kts | 144° |
| 2026-05-08 14:03 | 31.60577 | -8.04341 | 1526 ft | 5 kts | 83° |
| 2026-05-08 14:03 | 31.60568 | -8.04209 | 1524 ft | 21 kts | 95° |
| 2026-05-08 14:03 | 31.60552 | -8.04021 | 1524 ft | 25 kts | 96° |
| 2026-05-08 14:04 | 31.60533 | -8.03813 | 1532 ft | 26 kts | 96° |
| 2026-05-08 14:04 | 31.60514 | -8.03594 | 1528 ft | 28 kts | 96° |
| 2026-05-08 14:04 | 31.60493 | -8.03362 | 1538 ft | 29 kts | 96° |
| 2026-05-08 14:04 | 31.60470 | -8.03120 | 1538 ft | 31 kts | 96° |
| 2026-05-08 14:05 | 31.60450 | -8.02867 | 1544 ft | 32 kts | 94° |
| 2026-05-08 14:05 | 31.60431 | -8.02663 | 1546 ft | 23 kts | 98° |
| 2026-05-08 14:05 | 31.60410 | -8.02473 | 1543 ft | 25 kts | 95° |
| 2026-05-08 14:05 | 31.60401 | -8.02267 | 1550 ft | 21 kts | 97° |
| 2026-05-08 14:06 | 31.60382 | -8.02198 | 1551 ft | 8 kts | 130° |
| 2026-05-08 14:06 | 31.60333 | -8.02195 | 1552 ft | 8 kts | 196° |
| 2026-05-08 14:06 | 31.60272 | -8.02199 | 1552 ft | 11 kts | 186° |
| 2026-05-08 14:06 | 31.60187 | -8.02210 | 1552 ft | 14 kts | 185° |
| 2026-05-08 14:07 | 31.60083 | -8.02225 | 1552 ft | 13 kts | 193° |
| 2026-05-08 14:07 | 31.60035 | -8.02280 | 1551 ft | 10 kts | 263° |
| 2026-05-08 14:07 | 31.60037 | -8.02345 | 1550 ft | 0 kts | 274° |